Time;durP1;ratioP1;P1;durP2;ratioP2;P2;SDS_P1;SDS_P2;PMS_P1;PMS_P2;Temp;Humidity;BMP_temperature;BMP_pressure;BME280_temperature;BME280_humidity;BME280_pressure;Samples;Min_cycle;Max_cycle;Signal;HPM_P1;HPM_P2
2021/11/25 00:00:38;;;;;;;8.82;3.00;;;;;;;0.56;97.44;98967.47;4860037;29;20121;-67
2021/11/25 00:03:05;;;;;;;8.63;2.10;;;;;;;0.46;97.69;98961.06;4876669;29;20151;-66
2021/11/25 00:05:31;;;;;;;9.15;2.70;;;;;;;0.55;97.82;98976.41;4876592;29;20089;-68
2021/11/25 00:07:57;;;;;;;7.68;2.50;;;;;;;0.53;98.42;98980.97;4875610;29;20634;-67
2021/11/25 00:10:23;;;;;;;13.15;2.08;;;;;;;0.49;97.95;98976.81;4877101;29;20061;-66
2021/11/25 00:12:52;;;;;;;6.97;2.42;;;;;;;0.52;98.04;98968.63;4878338;29;20049;-68
2021/11/25 00:15:18;;;;;;;10.35;2.20;;;;;;;0.53;97.24;98967.66;4846292;29;20064;-66
2021/11/25 00:17:44;;;;;;;7.75;2.40;;;;;;;0.55;97.33;98984.38;4860503;29;20049;-67
2021/11/25 00:20:12;;;;;;;8.70;2.30;;;;;;;0.60;97.62;98989.38;4875505;29;20155;-67
2021/11/25 00:22:39;;;;;;;7.00;2.35;;;;;;;0.34;96.40;98944.13;4875120;29;20056;-69
2021/11/25 00:25:06;;;;;;;6.60;1.75;;;;;;;0.62;96.86;98988.31;4875520;29;20053;-67
2021/11/25 00:27:32;;;;;;;9.02;1.85;;;;;;;0.54;97.01;98974.69;4877063;29;20072;-66
2021/11/25 00:29:58;;;;;;;6.93;2.22;;;;;;;0.44;97.13;98966.50;4875326;29;20045;-67
2021/11/25 00:32:24;;;;;;;6.90;2.28;;;;;;;0.60;96.50;98990.22;4859079;29;20411;-67
2021/11/25 00:34:49;;;;;;;6.07;1.75;;;;;;;0.68;96.49;98998.53;4876595;29;20136;-66
2021/11/25 00:37:15;;;;;;;6.32;1.75;;;;;;;0.64;96.07;98997.03;4877545;29;20526;-66
2021/11/25 00:39:41;;;;;;;6.53;1.95;;;;;;;0.68;96.05;99003.84;4875755;29;20073;-66
2021/11/25 00:42:07;;;;;;;7.30;2.35;;;;;;;0.61;96.47;98993.72;4875590;29;20148;-66
2021/11/25 00:44:33;;;;;;;8.20;2.25;;;;;;;0.66;96.71;99005.78;4875672;29;20137;-65
2021/11/25 00:46:59;;;;;;;6.88;2.10;;;;;;;0.52;97.47;98989.91;4876393;29;20523;-67
2021/11/25 00:49:25;;;;;;;7.10;2.15;;;;;;;0.58;97.51;99009.88;4859837;29;20061;-66
2021/11/25 00:51:51;;;;;;;9.80;2.53;;;;;;;0.55;97.73;99013.63;4874718;29;20057;-67
2021/11/25 00:54:17;;;;;;;7.15;2.38;;;;;;;0.51;98.04;99025.41;4875348;29;20057;-65
2021/11/25 00:56:42;;;;;;;6.88;2.03;;;;;;;0.29;97.79;98995.91;4876863;29;20065;-67
2021/11/25 00:59:10;;;;;;;8.60;2.63;;;;;;;0.46;98.12;99014.25;4878413;29;20131;-71
2021/11/25 01:01:36;;;;;;;7.68;2.28;;;;;;;0.43;98.77;99019.75;4880487;29;20608;-66
2021/11/25 01:04:02;;;;;;;6.07;1.83;;;;;;;0.38;98.23;99011.25;4862688;29;20079;-66
2021/11/25 01:06:28;;;;;;;6.47;1.70;;;;;;;0.43;98.35;99035.72;4844441;29;20053;-66
2021/11/25 01:08:56;;;;;;;6.57;2.00;;;;;;;0.42;98.18;99023.38;4860210;29;20215;-67
2021/11/25 01:11:25;;;;;;;7.30;2.13;;;;;;;0.28;98.03;99008.34;4845077;29;20095;-66
2021/11/25 01:13:54;;;;;;;7.80;2.75;;;;;;;0.45;97.96;99049.75;4860016;29;20079;-67
2021/11/25 01:16:23;;;;;;;6.05;1.63;;;;;;;0.46;97.58;99031.03;4875357;29;20056;-66
2021/11/25 01:18:50;;;;;;;8.10;1.55;;;;;;;0.55;96.56;99029.59;4862991;29;20561;-65
2021/11/25 01:21:16;;;;;;;6.25;1.63;;;;;;;0.52;96.12;99029.78;4832670;29;20086;-70
2021/11/25 01:23:42;;;;;;;5.03;1.35;;;;;;;0.55;95.21;99039.34;4878670;29;20088;-67
2021/11/25 01:26:08;;;;;;;6.88;1.60;;;;;;;0.21;95.62;98985.78;4880041;29;20063;-66
2021/11/25 01:28:35;;;;;;;5.13;1.40;;;;;;;0.56;95.57;99057.88;4869296;29;20061;-63
2021/11/25 01:31:01;;;;;;;6.03;1.50;;;;;;;0.37;95.29;99020.19;4869650;29;20176;-66
2021/11/25 01:33:29;;;;;;;6.30;1.40;;;;;;;0.60;95.42;99050.53;4863346;29;20093;-66
2021/11/25 01:35:56;;;;;;;8.20;1.38;;;;;;;0.67;95.19;99060.66;4848755;29;20064;-67
2021/11/25 01:38:22;;;;;;;6.95;1.33;;;;;;;0.62;94.49;99051.28;4879650;29;20059;-65
2021/11/25 01:40:49;;;;;;;5.60;1.60;;;;;;;0.61;94.26;99071.69;4879670;29;20105;-66
2021/11/25 01:43:20;;;;;;;6.50;1.70;;;;;;;0.64;95.05;99081.28;4879375;29;20057;-66
2021/11/25 01:45:48;;;;;;;7.25;1.30;;;;;;;0.54;94.49;99057.13;4878492;29;20076;-66
2021/11/25 01:48:14;;;;;;;4.78;1.20;;;;;;;0.55;94.59;99061.50;4877978;29;20061;-66
2021/11/25 01:50:40;;;;;;;6.65;1.30;;;;;;;0.61;93.98;99071.69;4877500;29;20182;-66
2021/11/25 01:53:06;;;;;;;5.43;1.38;;;;;;;0.68;94.20;99086.28;4846806;29;20527;-66
2021/11/25 01:55:32;;;;;;;4.95;1.20;;;;;;;0.46;95.50;99056.78;4863047;29;20080;-67
2021/11/25 01:57:58;;;;;;;6.00;1.60;;;;;;;0.64;96.06;99094.59;4835204;29;20459;-66
2021/11/25 02:00:48;;;;;;;8.55;1.73;;;;;;;0.63;96.90;99101.72;4881046;29;20053;-66
2021/11/25 02:03:15;;;;;;;6.60;2.08;;;;;;;0.51;97.06;99091.03;4846972;29;20065;-65
2021/11/25 02:05:41;;;;;;;7.03;1.40;;;;;;;0.52;96.77;99088.28;4863763;29;20160;-66
2021/11/25 02:08:07;;;;;;;6.05;1.50;;;;;;;0.58;96.62;99097.66;4863781;29;20160;-65
2021/11/25 02:10:34;;;;;;;7.70;1.95;;;;;;;0.60;96.07;99095.75;4863299;29;20097;-66
2021/11/25 02:13:00;;;;;;;6.32;1.45;;;;;;;0.63;96.34;99114.19;4861374;29;20109;-66
2021/11/25 02:15:26;;;;;;;6.88;2.00;;;;;;;0.60;96.16;99115.22;4860042;29;20069;-66
2021/11/25 02:17:52;;;;;;;5.20;1.45;;;;;;;0.53;96.56;99100.63;4861367;29;20065;-66
2021/11/25 02:20:18;;;;;;;6.57;1.80;;;;;;;0.64;95.91;99111.41;4845214;29;20088;-66
2021/11/25 02:22:44;;;;;;;6.47;1.73;;;;;;;0.42;95.00;99066.75;4861205;29;20053;-67
2021/11/25 02:25:12;;;;;;;4.93;1.50;;;;;;;0.64;94.61;99119.38;4861175;29;20170;-65
2021/11/25 02:27:38;;;;;;;5.70;1.50;;;;;;;0.64;94.53;99114.06;4843946;29;20141;-67
2021/11/25 02:30:05;;;;;;;5.95;1.70;;;;;;;0.63;93.46;99123.00;4858943;29;20101;-66
2021/11/25 02:32:38;;;;;;;7.65;1.60;;;;;;;0.66;92.81;99117.47;4858496;29;20368;-68
2021/11/25 02:35:09;;;;;;;6.65;1.67;;;;;;;0.68;92.90;99120.88;4858778;29;20377;-66
2021/11/25 02:37:35;;;;;;;9.00;1.70;;;;;;;0.66;93.60;99125.47;4877127;29;20049;-69
2021/11/25 02:40:14;;;;;;;5.80;1.42;;;;;;;0.64;93.31;99113.22;4846184;29;20467;-67
2021/11/25 02:42:40;;;;;;;5.82;1.38;;;;;;;0.56;94.30;99116.38;4877347;29;20069;-68
2021/11/25 02:45:06;;;;;;;6.10;1.60;;;;;;;0.64;94.13;99134.50;4876719;29;20403;-66
2021/11/25 02:47:32;;;;;;;5.65;1.52;;;;;;;0.59;94.82;99131.28;4861178;29;20480;-67
2021/11/25 02:49:58;;;;;;;6.35;1.50;;;;;;;0.60;94.52;99135.66;4878033;29;20059;-66
2021/11/25 02:52:25;;;;;;;6.90;1.60;;;;;;;0.54;94.75;99131.56;4876870;29;20341;-66
2021/11/25 02:54:52;;;;;;;9.13;1.80;;;;;;;0.55;94.19;99143.94;4876358;29;20064;-66
2021/11/25 02:57:18;;;;;;;7.38;1.73;;;;;;;0.45;94.62;99129.53;4860836;29;20053;-66
2021/11/25 02:59:45;;;;;;;6.60;1.58;;;;;;;0.57;94.52;99155.31;4860837;29;20064;-69
2021/11/25 03:02:11;;;;;;;5.35;1.42;;;;;;;0.53;94.63;99143.16;4845774;29;20476;-67
2021/11/25 03:04:36;;;;;;;6.18;1.60;;;;;;;0.60;94.77;99157.78;4860788;29;20067;-66
2021/11/25 03:07:02;;;;;;;6.43;1.80;;;;;;;0.65;94.26;99162.78;4876699;29;20152;-66
2021/11/25 03:09:31;;;;;;;6.18;2.00;;;;;;;0.33;94.01;99093.97;4860498;29;20061;-67
2021/11/25 03:11:57;;;;;;;7.35;1.85;;;;;;;0.62;94.22;99150.56;4846864;29;20060;-66
2021/11/25 03:14:22;;;;;;;8.30;2.60;;;;;;;0.46;94.46;99118.78;4845343;29;20197;-65
2021/11/25 03:16:48;;;;;;;6.50;2.08;;;;;;;0.54;94.27;99136.88;4876487;29;20059;-66
2021/11/25 03:19:14;;;;;;;6.47;1.85;;;;;;;0.63;94.76;99160.25;4877328;29;20511;-66
2021/11/25 03:21:40;;;;;;;7.30;1.65;;;;;;;0.50;94.80;99135.38;4876075;29;20101;-67
2021/11/25 03:24:06;;;;;;;6.50;1.65;;;;;;;0.63;94.44;99154.91;4876426;29;20057;-66
2021/11/25 03:26:32;;;;;;;7.63;2.00;;;;;;;0.63;94.32;99152.25;4860374;29;20137;-66
2021/11/25 03:29:00;;;;;;;6.50;1.80;;;;;;;0.57;95.30;99139.34;4876065;29;20141;-66
2021/11/25 03:31:29;;;;;;;5.97;1.63;;;;;;;0.49;95.58;99139.00;4875513;29;20080;-68
2021/11/25 03:33:57;;;;;;;7.07;1.70;;;;;;;0.55;95.62;99143.06;4877031;29;20056;-67
2021/11/25 03:36:24;;;;;;;8.10;1.98;;;;;;;0.54;95.19;99154.66;4877186;29;20057;-68
2021/11/25 03:38:51;;;;;;;9.45;2.33;;;;;;;0.56;95.99;99163.41;4859913;29;20515;-67
2021/11/25 03:41:18;;;;;;;8.60;2.20;;;;;;;0.53;95.52;99159.13;4879119;29;20077;-67
2021/11/25 03:43:44;;;;;;;10.20;2.10;;;;;;;0.55;95.93;99170.53;4875398;29;20117;-69
2021/11/25 03:46:10;;;;;;;6.65;2.10;;;;;;;0.27;96.72;99114.78;4875682;29;20069;-67
2021/11/25 03:48:36;;;;;;;6.90;1.98;;;;;;;0.50;96.12;99164.66;4875463;29;20057;-68
2021/11/25 03:51:05;;;;;;;7.90;2.20;;;;;;;0.54;95.86;99168.81;4875907;29;20083;-68
2021/11/25 03:53:32;;;;;;;8.00;2.58;;;;;;;0.60;95.05;99164.91;4877083;29;20136;-68
2021/11/25 03:55:59;;;;;;;11.15;2.50;;;;;;;0.67;95.38;99183.03;4875792;29;20068;-67
2021/11/25 03:58:25;;;;;;;8.02;2.33;;;;;;;0.51;95.83;99160.16;4829691;29;20096;-67
2021/11/25 04:00:54;;;;;;;10.32;3.28;;;;;;;0.65;95.27;99187.56;4859981;29;20057;-68
2021/11/25 04:03:22;;;;;;;9.15;2.55;;;;;;;0.66;95.68;99197.28;4871585;29;20072;-65
2021/11/25 04:05:47;;;;;;;9.82;3.00;;;;;;;0.66;95.30;99197.28;4845798;29;20072;-71
2021/11/25 04:08:15;;;;;;;10.00;2.67;;;;;;;0.72;94.71;99191.53;4854903;29;20109;-69
2021/11/25 04:10:41;;;;;;;9.55;2.70;;;;;;;0.65;94.84;99194.69;4842946;29;20156;-71
2021/11/25 04:13:07;;;;;;;8.88;2.47;;;;;;;0.68;94.76;99211.31;4842956;29;20113;-70
2021/11/25 04:15:32;;;;;;;7.65;2.25;;;;;;;0.53;94.79;99175.09;4865307;29;20122;-68
2021/11/25 04:17:58;;;;;;;10.60;2.50;;;;;;;0.60;94.01;99203.00;4854932;29;20062;-73
2021/11/25 04:20:26;;;;;;;7.57;2.42;;;;;;;0.72;94.28;99218.13;4848141;29;20061;-65
2021/11/25 04:22:51;;;;;;;9.10;2.13;;;;;;;0.68;93.36;99219.28;4840629;29;20045;-69
2021/11/25 04:25:17;;;;;;;12.18;2.60;;;;;;;0.60;93.60;99208.31;4855948;29;20049;-68
2021/11/25 04:27:44;;;;;;;7.22;2.30;;;;;;;0.76;92.97;99223.25;4863253;29;20369;-68
2021/11/25 04:30:22;;;;;;;8.52;2.22;;;;;;;0.65;93.43;99211.50;4859506;29;20479;-69
2021/11/25 04:35:36;;;;;;;8.05;2.35;;;;;;;0.83;92.66;99229.91;4875968;29;20056;-68
2021/11/25 04:38:07;;;;;;;9.80;2.50;;;;;;;0.77;92.57;99225.84;4833167;29;20091;-69
2021/11/25 04:40:39;;;;;;;8.70;2.05;;;;;;;0.67;92.20;99201.63;4878436;29;20165;-69
2021/11/25 04:43:06;;;;;;;8.32;2.00;;;;;;;0.82;91.35;99233.53;4879022;29;20045;-69
2021/11/25 04:45:34;;;;;;;6.95;2.08;;;;;;;0.77;91.45;99230.28;4877620;29;20064;-68
2021/11/25 04:48:00;;;;;;;10.25;2.10;;;;;;;0.80;91.09;99235.41;4878095;29;20060;-69
2021/11/25 04:50:27;;;;;;;10.13;2.50;;;;;;;0.80;91.58;99240.72;4848161;29;20079;-69
2021/11/25 04:52:53;;;;;;;8.70;2.25;;;;;;;0.77;91.85;99251.56;4880360;29;20152;-69
2021/11/25 04:55:19;;;;;;;9.15;2.05;;;;;;;0.61;92.32;99230.44;4879134;29;20061;-69
2021/11/25 04:57:45;;;;;;;9.23;2.33;;;;;;;0.71;92.62;99258.16;4863145;29;20202;-68
2021/11/25 05:00:12;;;;;;;12.85;2.70;;;;;;;0.67;93.55;99251.31;4878545;29;20507;-70
2021/11/25 05:02:38;;;;;;;6.78;1.90;;;;;;;0.71;93.84;99263.47;4879009;29;20053;-69
2021/11/25 05:05:06;;;;;;;8.40;2.53;;;;;;;0.69;93.83;99266.22;4847862;29;20053;-70
2021/11/25 05:07:32;;;;;;;7.00;2.50;;;;;;;0.57;94.01;99240.41;4879706;29;20060;-70
2021/11/25 05:09:58;;;;;;;8.55;2.55;;;;;;;0.61;94.58;99257.88;4833216;29;20060;-69
2021/11/25 05:12:24;;;;;;;7.50;2.65;;;;;;;0.56;95.23;99254.69;4879255;29;20088;-70
2021/11/25 05:14:50;;;;;;;6.85;2.47;;;;;;;0.62;95.20;99259.59;4877960;29;20089;-67
2021/11/25 05:17:16;;;;;;;7.75;2.97;;;;;;;0.66;95.11;99266.44;4862361;29;20143;-68
2021/11/25 05:19:42;;;;;;;9.70;2.70;;;;;;;0.65;95.12;99258.53;4877830;29;20086;-69
2021/11/25 05:22:08;;;;;;;8.07;2.90;;;;;;;0.65;95.16;99264.72;4862299;29;20092;-70
2021/11/25 05:24:34;;;;;;;10.25;2.60;;;;;;;0.60;94.76;99265.97;4862886;29;20053;-70
2021/11/25 05:27:00;;;;;;;8.05;2.90;;;;;;;0.67;95.32;99278.78;4847274;29;20116;-71
2021/11/25 05:29:26;;;;;;;7.00;2.60;;;;;;;0.67;94.81;99273.47;4862398;29;20472;-70
2021/11/25 05:31:52;;;;;;;10.43;3.30;;;;;;;0.71;94.98;99285.59;4877395;29;20160;-69
2021/11/25 05:34:18;;;;;;;10.15;3.22;;;;;;;0.69;95.12;99287.50;4878586;29;20056;-69
2021/11/25 05:36:45;;;;;;;8.23;3.03;;;;;;;0.69;95.04;99284.84;4877684;29;20088;-70
2021/11/25 05:39:12;;;;;;;11.98;4.03;;;;;;;0.63;95.28;99266.63;4862177;29;20064;-70
2021/11/25 05:41:38;;;;;;;10.38;3.35;;;;;;;0.79;95.38;99292.25;4876960;29;20546;-69
2021/11/25 05:44:06;;;;;;;11.57;3.30;;;;;;;0.81;95.01;99296.53;4877394;29;20065;-69
2021/11/25 05:46:42;;;;;;;8.75;3.20;;;;;;;0.79;94.86;99281.59;4877757;29;20065;-70
2021/11/25 05:49:08;;;;;;;8.63;2.72;;;;;;;0.59;94.99;99264.28;4877326;29;20527;-70
2021/11/25 05:51:34;;;;;;;8.60;3.45;;;;;;;0.82;95.88;99297.38;4877706;29;20063;-69
2021/11/25 05:54:00;;;;;;;10.07;3.38;;;;;;;0.82;95.07;99302.69;4862335;29;20065;-68
2021/11/25 05:56:26;;;;;;;9.60;3.15;;;;;;;0.88;95.12;99310.28;4862265;29;20081;-70
2021/11/25 05:58:54;;;;;;;8.20;3.03;;;;;;;0.88;95.38;99307.63;4877530;29;20056;-69
2021/11/25 06:01:22;;;;;;;8.73;3.78;;;;;;;0.81;95.36;99296.53;4878258;29;20511;-70
2021/11/25 06:03:49;;;;;;;10.20;4.03;;;;;;;0.85;95.46;99291.84;4879246;29;20424;-71
2021/11/25 06:06:15;;;;;;;11.98;3.70;;;;;;;0.80;95.56;99286.81;4877685;29;20053;-69
2021/11/25 06:08:41;;;;;;;8.68;3.45;;;;;;;0.86;95.33;99293.56;4861904;29;20057;-70
2021/11/25 06:11:07;;;;;;;8.10;3.30;;;;;;;0.87;95.39;99290.78;4862542;29;20053;-70
2021/11/25 06:13:33;;;;;;;10.13;3.50;;;;;;;0.86;95.65;99298.88;4846768;29;20057;-69
2021/11/25 06:15:59;;;;;;;9.82;3.33;;;;;;;0.88;95.48;99291.66;4861876;29;20081;-69
2021/11/25 06:18:25;;;;;;;9.77;4.07;;;;;;;0.85;95.22;99297.19;4878099;29;20084;-71
2021/11/25 06:20:51;;;;;;;10.05;3.60;;;;;;;0.90;95.73;99303.03;4862179;29;20090;-69
2021/11/25 06:23:17;;;;;;;8.70;3.50;;;;;;;0.95;95.74;99308.91;4827708;29;20061;-70
2021/11/25 06:25:43;;;;;;;8.63;3.47;;;;;;;0.97;94.88;99307.03;4828460;29;20076;-68
2021/11/25 06:28:11;;;;;;;10.40;3.28;;;;;;;0.98;94.67;99306.06;4858929;29;20076;-71
2021/11/25 06:30:36;;;;;;;8.98;3.42;;;;;;;0.95;94.53;99295.59;4828924;29;20327;-70
2021/11/25 06:33:02;;;;;;;7.65;3.20;;;;;;;0.98;94.25;99311.38;4843784;29;20496;-70
2021/11/25 06:35:28;;;;;;;6.63;1.92;;;;;;;0.81;94.95;99285.88;4829014;29;20060;-70
2021/11/25 06:37:54;;;;;;;9.70;3.58;;;;;;;0.88;94.76;99294.31;4860761;29;20121;-70
2021/11/25 06:40:27;;;;;;;9.23;3.15;;;;;;;0.99;94.63;99328.19;4860467;29;20072;-70
2021/11/25 06:42:54;;;;;;;9.30;3.30;;;;;;;0.89;95.33;99299.53;4858889;29;20061;-70
2021/11/25 06:45:21;;;;;;;10.02;4.05;;;;;;;0.94;95.53;99317.84;4859582;29;20110;-69
2021/11/25 06:47:48;;;;;;;11.23;3.45;;;;;;;0.86;96.07;99304.19;4813580;29;20102;-70
2021/11/25 06:50:15;;;;;;;13.20;3.83;;;;;;;0.73;95.91;99290.81;4858365;29;20073;-70
2021/11/25 06:52:41;;;;;;;13.63;3.55;;;;;;;0.83;96.72;99315.03;4845402;29;20205;-70
2021/11/25 06:55:09;;;;;;;9.18;3.20;;;;;;;0.83;96.67;99320.34;4858538;29;20198;-71
2021/11/25 06:57:36;;;;;;;10.15;3.53;;;;;;;0.77;96.86;99304.78;4858598;29;20057;-70
2021/11/25 07:00:05;;;;;;;10.43;3.83;;;;;;;0.88;96.62;99318.28;4842306;29;20105;-70
2021/11/25 07:02:31;;;;;;;11.02;4.32;;;;;;;0.82;97.21;99313.34;4827352;29;20467;-69
2021/11/25 07:04:57;;;;;;;12.50;4.25;;;;;;;0.87;97.51;99327.19;4842527;29;20151;-70
2021/11/25 07:07:23;;;;;;;13.50;4.90;;;;;;;0.87;97.25;99316.53;4859762;29;20070;-70
2021/11/25 07:09:49;;;;;;;13.55;4.07;;;;;;;0.93;97.08;99316.16;4874448;29;20217;-70
2021/11/25 07:12:15;;;;;;;10.50;3.80;;;;;;;1.02;96.58;99331.53;4843049;29;20065;-70
2021/11/25 07:14:40;;;;;;;9.77;3.85;;;;;;;1.01;96.63;99323.66;4843336;29;20080;-70
2021/11/25 07:17:06;;;;;;;15.02;3.88;;;;;;;1.00;96.16;99333.44;4858136;29;20061;-69
2021/11/25 07:19:33;;;;;;;13.65;5.20;;;;;;;0.95;96.25;99320.44;4843149;29;20057;-70
2021/11/25 07:21:59;;;;;;;11.25;3.85;;;;;;;1.11;95.83;99328.28;4858020;29;20062;-71
2021/11/25 07:24:25;;;;;;;9.10;3.63;;;;;;;1.13;95.29;99330.81;4841904;29;20054;-69
2021/11/25 07:26:51;;;;;;;12.45;4.47;;;;;;;1.23;95.39;99342.59;4842004;29;20057;-70
2021/11/25 07:29:18;;;;;;;10.35;3.78;;;;;;;1.26;94.82;99350.38;4842116;29;20061;-70
2021/11/25 07:31:46;;;;;;;13.15;4.03;;;;;;;1.20;95.22;99340.13;4856923;29;20548;-69
2021/11/25 07:34:12;;;;;;;10.10;3.85;;;;;;;1.29;94.96;99344.88;4842196;29;20479;-70
2021/11/25 07:36:38;;;;;;;12.15;4.88;;;;;;;1.32;94.72;99344.66;4857282;29;20168;-70
2021/11/25 07:39:04;;;;;;;9.82;3.28;;;;;;;1.26;94.69;99345.06;4858742;29;20065;-70
2021/11/25 07:41:31;;;;;;;8.95;3.00;;;;;;;1.31;94.57;99352.75;4858348;29;20140;-71
2021/11/25 07:43:58;;;;;;;10.82;3.33;;;;;;;1.34;94.53;99348.06;4842215;29;20053;-70
2021/11/25 07:46:23;;;;;;;10.70;3.13;;;;;;;1.33;94.70;99350.84;4841923;29;20168;-71
2021/11/25 07:48:49;;;;;;;9.73;3.25;;;;;;;1.47;94.00;99360.59;4857192;29;20140;-70
2021/11/25 07:51:16;;;;;;;11.55;3.70;;;;;;;1.38;94.04;99360.22;4857255;29;20148;-70
2021/11/25 07:53:42;;;;;;;12.35;3.72;;;;;;;1.37;94.09;99355.00;4859159;29;20508;-70
2021/11/25 07:56:09;;;;;;;10.98;4.93;;;;;;;1.45;94.08;99371.34;4858493;29;20061;-70
2021/11/25 07:58:35;;;;;;;12.48;4.85;;;;;;;1.40;94.60;99371.66;4841248;29;20538;-70
2021/11/25 08:01:01;;;;;;;12.70;4.65;;;;;;;1.35;94.77;99367.56;4841417;29;20062;-70
2021/11/25 08:03:26;;;;;;;9.98;4.35;;;;;;;1.32;94.83;99360.66;4856964;29;20084;-70
2021/11/25 08:05:55;;;;;;;10.95;3.75;;;;;;;1.30;94.79;99346.56;4857558;29;20588;-70
2021/11/25 08:08:21;;;;;;;8.82;3.78;;;;;;;1.34;95.08;99373.84;4845822;29;20542;-70
2021/11/25 08:10:48;;;;;;;10.80;3.80;;;;;;;1.35;95.12;99368.44;4861711;29;20061;-70
2021/11/25 08:13:14;;;;;;;11.18;4.60;;;;;;;1.28;95.58;99368.91;4846599;29;20106;-71
2021/11/25 08:15:39;;;;;;;8.80;3.47;;;;;;;1.22;95.43;99345.38;4863703;29;20053;-70
2021/11/25 08:18:05;;;;;;;11.95;3.67;;;;;;;1.44;95.19;99358.97;4863826;29;20427;-70
2021/11/25 08:20:32;;;;;;;10.32;4.10;;;;;;;1.37;94.73;99334.56;4833344;29;20105;-69
2021/11/25 08:22:58;;;;;;;11.88;4.28;;;;;;;1.42;94.88;99367.06;4864370;29;20057;-70
2021/11/25 08:25:25;;;;;;;12.48;4.60;;;;;;;1.29;94.71;99346.69;4848785;29;20594;-71
2021/11/25 08:27:55;;;;;;;10.10;3.80;;;;;;;1.24;95.33;99340.78;4879456;29;20057;-70
2021/11/25 08:30:23;;;;;;;9.52;3.70;;;;;;;1.31;95.09;99352.75;4879612;29;20061;-71
2021/11/25 08:32:50;;;;;;;11.07;4.07;;;;;;;1.15;94.93;99320.94;4880603;29;20419;-70
2021/11/25 08:35:16;;;;;;;13.18;4.13;;;;;;;1.40;95.63;99353.00;4880204;29;20191;-71
2021/11/25 08:37:42;;;;;;;11.55;4.45;;;;;;;1.45;94.83;99360.69;4864028;29;20049;-69
2021/11/25 08:40:11;;;;;;;9.73;3.42;;;;;;;1.58;94.63;99366.91;4863803;29;20060;-70
2021/11/25 08:42:37;;;;;;;10.63;3.80;;;;;;;1.55;94.49;99377.78;4879938;29;20108;-71
2021/11/25 08:45:05;;;;;;;8.18;3.13;;;;;;;1.53;94.46;99365.50;4880182;29;20061;-71
2021/11/25 08:47:31;;;;;;;13.60;3.90;;;;;;;1.64;94.20;99361.16;4878376;29;20608;-71
2021/11/25 08:49:58;;;;;;;10.15;3.78;;;;;;;1.69;94.09;99372.38;4879792;29;20148;-72
2021/11/25 08:52:23;;;;;;;11.25;4.03;;;;;;;1.42;93.75;99329.78;4878688;29;20515;-70
2021/11/25 08:54:49;;;;;;;8.90;3.60;;;;;;;1.58;93.52;99372.25;4848572;29;20064;-69
2021/11/25 08:57:15;;;;;;;10.00;4.22;;;;;;;1.62;94.04;99371.09;4863593;29;20420;-71
2021/11/25 08:59:42;;;;;;;11.45;3.72;;;;;;;1.62;94.03;99368.41;4817637;29;20136;-71
2021/11/25 09:02:10;;;;;;;11.82;3.75;;;;;;;1.43;94.11;99342.16;4862939;29;20204;-71
2021/11/25 09:04:36;;;;;;;10.32;3.72;;;;;;;1.55;94.05;99364.47;4847772;29;20108;-70
2021/11/25 09:07:03;;;;;;;13.50;4.88;;;;;;;1.40;94.26;99336.19;4863565;29;20064;-70
2021/11/25 09:09:29;;;;;;;11.57;4.20;;;;;;;1.59;94.19;99362.44;4878445;29;20091;-70
2021/11/25 09:11:55;;;;;;;10.38;4.60;;;;;;;1.46;94.37;99346.41;4878420;29;20105;-70
2021/11/25 09:14:23;;;;;;;14.07;3.97;;;;;;;1.63;94.41;99363.94;4847135;29;20089;-70
2021/11/25 09:16:50;;;;;;;10.30;3.80;;;;;;;1.58;93.96;99358.09;4863129;29;20056;-71
2021/11/25 09:19:16;;;;;;;13.93;3.90;;;;;;;1.47;94.31;99348.13;4862522;29;20059;-70
2021/11/25 09:21:42;;;;;;;9.55;3.75;;;;;;;1.28;94.00;99311.22;4863875;29;20080;-70
2021/11/25 09:24:09;;;;;;;9.57;4.00;;;;;;;1.66;93.92;99363.75;4849825;29;20061;-71
2021/11/25 09:26:37;;;;;;;13.02;4.25;;;;;;;1.38;94.08;99322.09;4847874;29;20057;-70
2021/11/25 09:29:04;;;;;;;10.05;4.05;;;;;;;1.63;94.57;99358.63;4878214;29;20057;-70
2021/11/25 09:31:31;;;;;;;12.80;4.13;;;;;;;1.63;94.76;99369.28;4848243;29;20069;-71
2021/11/25 09:33:58;;;;;;;11.63;4.13;;;;;;;1.60;94.93;99365.00;4860866;29;20148;-71
2021/11/25 09:36:25;;;;;;;10.90;4.25;;;;;;;1.27;95.12;99306.81;4844008;29;20474;-70
2021/11/25 09:38:53;;;;;;;9.93;3.75;;;;;;;1.59;95.69;99368.63;4860907;29;20061;-70
2021/11/25 09:41:19;;;;;;;10.55;3.97;;;;;;;1.51;94.92;99349.63;4843712;29;20064;-70
2021/11/25 09:43:45;;;;;;;11.00;4.13;;;;;;;1.34;95.27;99323.25;4858872;29;20512;-70
2021/11/25 09:46:11;;;;;;;10.40;4.65;;;;;;;1.49;95.18;99351.53;4859984;29;20061;-71
2021/11/25 09:48:38;;;;;;;11.00;4.20;;;;;;;1.60;95.57;99358.81;4860148;29;20057;-70
2021/11/25 09:51:05;;;;;;;12.23;4.72;;;;;;;1.54;96.08;99365.41;4844391;29;20065;-71
2021/11/25 09:53:32;;;;;;;11.50;3.85;;;;;;;1.58;95.95;99361.59;4861083;29;20061;-70
2021/11/25 09:55:59;;;;;;;11.52;3.97;;;;;;;1.45;95.54;99342.03;4859790;29;20081;-70
2021/11/25 09:58:28;;;;;;;10.50;4.20;;;;;;;1.53;95.57;99353.03;4859090;29;20550;-71
2021/11/25 10:01:04;;;;;;;11.13;4.05;;;;;;;1.45;95.26;99342.03;4859641;29;20112;-70
2021/11/25 10:03:32;;;;;;;10.80;4.00;;;;;;;1.58;95.52;99356.25;4859672;29;20076;-70
2021/11/25 10:05:58;;;;;;;10.60;4.20;;;;;;;1.53;95.61;99347.69;4829073;29;20062;-71
2021/11/25 10:08:31;;;;;;;11.43;4.50;;;;;;;1.57;95.72;99367.88;4860874;29;20057;-71
2021/11/25 10:11:24;;;;;;;11.05;4.50;;;;;;;1.63;95.40;99364.78;4860692;29;20140;-70
2021/11/25 10:13:56;;;;;;;8.73;3.70;;;;;;;1.59;95.68;99352.63;4836193;29;20060;-69
2021/11/25 10:16:27;;;;;;;10.93;3.72;;;;;;;1.62;96.01;99357.75;4859073;29;20057;-70
2021/11/25 10:19:13;;;;;;;11.88;4.72;;;;;;;1.61;95.69;99350.75;4844066;29;20079;-70
2021/11/25 10:21:53;;;;;;;10.50;4.43;;;;;;;1.58;95.97;99344.75;4843725;29;20380;-71
2021/11/25 10:24:34;;;;;;;12.65;5.15;;;;;;;1.62;95.81;99357.75;4860158;29;20475;-71
2021/11/25 10:27:21;;;;;;;11.98;4.60;;;;;;;1.58;95.61;99340.28;4843554;29;20057;-71
2021/11/25 10:29:50;;;;;;;11.20;3.90;;;;;;;1.62;95.54;99328.47;4857881;29;20542;-70
2021/11/25 10:32:21;;;;;;;10.65;3.83;;;;;;;1.69;95.09;99342.22;4858444;29;20057;-70
2021/11/25 10:35:24;;;;;;;16.35;4.68;;;;;;;1.67;95.50;99333.47;4858826;29;20185;-70
2021/11/25 10:40:32;;;;;;;10.48;4.18;;;;;;;1.61;95.41;99329.44;4858516;29;20105;-69
2021/11/25 10:42:58;;;;;;;20.13;4.80;;;;;;;1.57;95.20;99316.38;4842840;29;20060;-70
2021/11/25 10:45:24;;;;;;;12.00;4.38;;;;;;;1.67;95.15;99329.00;4860262;29;20431;-70
2021/11/25 10:48:02;;;;;;;14.55;5.03;;;;;;;1.66;94.65;99321.97;4857160;29;20592;-71
2021/11/25 10:50:30;;;;;;;11.07;4.15;;;;;;;1.75;95.09;99330.28;4859295;29;20065;-70
2021/11/25 10:53:07;;;;;;;10.18;3.97;;;;;;;1.78;94.12;99319.44;4872948;29;20136;-71
2021/11/25 10:55:34;;;;;;;12.05;5.05;;;;;;;1.77;94.24;99328.38;4858936;29;20080;-70
2021/11/25 10:58:02;;;;;;;13.05;4.45;;;;;;;1.61;94.33;99297.47;4857734;29;20056;-70
2021/11/25 11:00:34;;;;;;;13.60;5.15;;;;;;;1.61;94.55;99301.91;4842721;29;20057;-70
2021/11/25 11:03:17;;;;;;;12.07;4.70;;;;;;;1.80;93.95;99326.38;4842459;29;20149;-70
2021/11/25 11:06:01;;;;;;;12.27;4.90;;;;;;;1.75;94.27;99314.31;4859257;29;20531;-70
2021/11/25 11:08:29;;;;;;;13.82;4.70;;;;;;;1.86;94.02;99333.06;4859129;29;20068;-70
2021/11/25 11:10:58;;;;;;;10.10;4.35;;;;;;;1.81;93.78;99332.56;4873553;29;20054;-70
2021/11/25 11:18:47;;;;;;;11.35;4.75;;;;;;;1.83;93.91;99325.28;4844551;29;20061;-71
2021/11/25 11:21:31;;;;;;;;;;;;;;;1.84;94.43;99319.88;4858153;29;20058;-70
2021/11/25 11:23:59;;;;;;;10.25;3.78;;;;;;;1.88;93.98;99331.19;4857117;29;19920;-69
2021/11/25 11:26:25;;;;;;;14.18;4.22;;;;;;;1.90;94.33;99327.47;4856898;29;20092;-70
2021/11/25 11:28:51;;;;;;;15.48;4.88;;;;;;;1.84;93.80;99330.53;4857760;29;20462;-70
2021/11/25 11:31:18;;;;;;;13.57;5.15;;;;;;;1.84;93.85;99324.34;4857723;29;20614;-71
2021/11/25 11:33:44;;;;;;;14.25;4.53;;;;;;;1.82;93.67;99318.25;4872729;29;20053;-70
2021/11/25 11:36:10;;;;;;;17.27;6.47;;;;;;;1.88;93.68;99323.19;4842238;29;20129;-70
2021/11/25 11:38:37;;;;;;;15.73;5.72;;;;;;;1.90;93.62;99323.91;4827484;29;20144;-70
2021/11/25 11:41:04;;;;;;;11.45;3.67;;;;;;;1.87;93.91;99326.81;4841894;29;20114;-70
2021/11/25 11:43:31;;;;;;;11.50;4.63;;;;;;;1.86;94.06;99325.09;4872717;29;20400;-70
2021/11/25 11:45:57;;;;;;;12.52;4.43;;;;;;;1.87;93.99;99329.47;4842081;29;20053;-70
2021/11/25 11:48:24;;;;;;;12.77;3.80;;;;;;;1.83;94.20;99327.94;4857158;29;20065;-70
2021/11/25 11:50:54;;;;;;;10.45;4.20;;;;;;;1.83;94.34;99327.94;4858989;29;20057;-70